ADDS METAR Data INFO
IDs: Format: Raw Decoded Include TAF

Data at: 2020 UTC 20 Jul 2018

KVPC 201953Z AUTO 08005KT 10SM FEW047 FEW055 31/21 A2998 RMK AO2 SLP138 T03060206
KVPC 201853Z AUTO 08005KT 10SM FEW039 SCT049 30/21 A3000 RMK AO2 SLP147 T03000211
KVPC 201753Z AUTO VRB05KT 10SM FEW036 29/22 A3001 RMK AO2 SLP150 T02940217 10300 20233 58010
KVPC 201653Z AUTO 13005KT 10SM FEW029 SCT045 OVC050 28/22 A3003 RMK AO2 SLP154 T02780217
KVPC 201553Z AUTO VRB04KT 10SM SCT028 BKN043 28/22 A3004 RMK AO2 SLP159 T02780217
KVPC 201453Z AUTO 07006KT 9SM BKN024 BKN031 27/22 A3005 RMK AO2 SLP161 T02670217 51010
KVPC 201435Z AUTO 14004KT 9SM BKN022 BKN036 27/22 A3005 RMK AO2 T02670222
KVPC 201426Z AUTO VRB06KT 9SM SCT022 BKN038 26/22 A3005 RMK AO2 T02610222
KVPC 201353Z AUTO 10003KT 9SM BKN022 OVC040 26/22 A3005 RMK AO2 SLP161 T02560222
KVPC 201305Z AUTO 07003KT 8SM FEW018 BKN028 BKN035 25/22 A3004 RMK AO2 T02500222
KVPC 201253Z AUTO 00000KT 8SM SCT024 BKN032 24/22 A3003 RMK AO2 SLP157 T02440217
KVPC 201246Z AUTO VRB03KT 8SM SCT022 SCT034 24/22 A3003 RMK AO2 T02440222
KVPC 201212Z AUTO VRB04KT 8SM BKN019 OVC032 24/22 A3002 RMK AO2 T02390222
KVPC 201153Z AUTO 00000KT 8SM FEW020 SCT026 BKN032 23/22 A3002 RMK AO2 SLP152 T02330217 10239 20222 51010
KVPC 201149Z AUTO 00000KT 8SM FEW020 SCT026 BKN030 23/22 A3002 RMK AO2
KVPC 201053Z AUTO 00000KT 8SM BKN023 23/22 A3000 RMK AO2 SLP145 T02280217
KVPC 200953Z AUTO 00000KT 9SM OVC016 23/22 A2999 RMK AO2 SLP141 T02330222
KVPC 200853Z AUTO 00000KT 8SM BKN017 23/22 A2998 RMK AO2 SLP138 T02280222 55001
KVPC 200826Z AUTO 00000KT 8SM SCT019 23/22 A2998 RMK AO2 T02280222
KVPC 200811Z AUTO VRB03KT 8SM BKN019 23/22 A2997 RMK AO2 T02280222
KVPC 200753Z AUTO 00000KT 8SM FEW027 22/22 A2998 RMK AO2 SLP139 T02220222
KVPC 200728Z AUTO 00000KT 9SM SCT021 23/22 A2997 RMK AO2 T02280222
KVPC 200713Z AUTO 13003KT 9SM BKN021 BKN042 23/22 A2998 RMK AO2 T02330222
KVPC 200653Z AUTO 00000KT 9SM BKN042 23/22 A2998 RMK AO2 SLP140 T02330222
KVPC 200613Z AUTO 00000KT 9SM SCT021 OVC030 24/22 A3000 RMK AO2 T02390222
KVPC 200553Z AUTO 14003KT 10SM BKN022 OVC036 24/22 A2999 RMK AO2 SLP143 T02390222 10272 20233 58005
KVPC 200532Z AUTO 00000KT 9SM BKN022 BKN034 23/22 A3000 RMK AO2 T02330222
KVPC 200520Z AUTO 00000KT 10SM SCT024 BKN033 24/22 A3000 RMK AO2 T02390222
KVPC 200453Z AUTO 00000KT 10SM OVC027 24/22 A3000 RMK AO2 SLP146 T02440222 403220189
KVPC 200427Z AUTO 00000KT 10SM BKN025 OVC041 24/22 A3001 RMK AO2 T02440222
KVPC 200408Z AUTO 00000KT 10SM SCT027 OVC040 25/22 A3001 RMK AO2 T02500217
KVPC 200353Z AUTO 00000KT 10SM OVC027 24/22 A3001 RMK AO2 SLP148 T02440222
KVPC 200253Z AUTO 00000KT 10SM BKN025 25/21 A3001 RMK AO2 SLP149 T02500211 51018
KVPC 200153Z AUTO 12009G15KT 10SM BKN070 26/21 A3000 RMK AO2 SLP146 T02560206
KVPC 200100Z AUTO 09005KT 9SM SCT028 BKN065 27/23 A2998 RMK AO2 LTG DSNT S T02670228
KVPC 200053Z AUTO 09004KT 9SM BKN028 BKN046 BKN060 27/23 A2998 RMK AO2 LTG DSNT S SLP139 T02670228
KVPC 200044Z AUTO 11005KT 9SM BKN028 BKN043 BKN050 27/23 A2998 RMK AO2 LTG DSNT S T02670233
KVPC 192353Z AUTO 00000KT 8SM BKN046 BKN070 OVC090 26/25 A2996 RMK AO2 RAB20E43 SLP132 P0000 60000 T02560250 10322 20256 53001
KVPC 192253Z AUTO 00000KT 9SM FEW039 27/24 A2995 RMK AO2 SLP129 T02720244
KVPC 192153Z AUTO 00000KT 9SM FEW030 BKN037 BKN070 29/24 A2995 RMK AO2 RAB44E53 SLP130 P0000 T02890244
KVPC 192053Z AUTO 00000KT 9SM CLR 29/23 A2996 RMK AO2 LTG DSNT S-NW SLP131 T02890233 55003
KVPC 192007Z AUTO VRB03KT 9SM CLR 29/24 A2994 RMK AO2 LTG DSNT S-NW T02890239
KVPC 191953Z AUTO 13004KT 9SM VCTS CLR 29/23 A2994 RMK AO2 LTG DSNT S-NW SLP126 T02890233
KVPC 191928Z AUTO 10004KT 9SM VCTS CLR 29/23 A2995 RMK AO2 LTG DSNT S-W T02890233
KVPC 191853Z AUTO 10007KT 050V130 10SM FEW037 SCT085 29/23 A2995 RMK AO2 SLP129 T02940233
KVPC 191753Z AUTO 05007KT 10SM FEW038 31/23 A2997 RMK AO2 SLP133 T03110228 10317 20206 58011
KVPC 191653Z AUTO 05008KT 10SM CLR 31/23 A2999 RMK AO2 SLP141 T03060228
KVPC 191553Z AUTO VRB05KT 10SM CLR 29/23 A3000 RMK AO2 SLP146 T02940228
KVPC 191453Z AUTO VRB03KT 10SM CLR 28/23 A3000 RMK AO2 SLP145 T02830228 50001
KVPC 191353Z AUTO 04003KT 10SM CLR 26/22 A3000 RMK AO2 SLP147 T02610222
KVPC 191253Z AUTO 00000KT 9SM FEW029 23/21 A3000 RMK AO2 SLP148 T02280211
KVPC 191153Z AUTO 00000KT 8SM CLR 21/21 A2999 RMK AO2 SLP143 T02060206 10206 20189 53014
KVPC 191053Z AUTO 00000KT 7SM CLR 20/20 A2998 RMK AO2 SLP137 T02000200
KVPC 190953Z AUTO 00000KT 8SM CLR 20/20 A2996 RMK AO2 SLP133 T02000200
KVPC 190853Z AUTO 00000KT 7SM CLR 19/19 A2995 RMK AO2 SLP129 T01940194 55001